Погода Селенгинскна 2 недели

Республика Бурятия, Россия

16 - 29 июля
  • 16июля
    Сегодня
    +15°
    +25°
    Ясно и безоблачно
    ВремяПогодаТемператураВлажностьДавлениеВетер, м/сВероятность осадков
    02:00Облачно с прояснениями+17°C78 %715 мм1.0 м/с2 %
    05:00Небольшая облачность+15°C82 %715 мм0.7 м/с4 %
    08:00Пасмурно, сплошная облачность+19°C77 %717 мм2.0 м/с18 %
    11:00Пасмурно, небольшой дождь+20°C71 %717 мм3.2 м/с29 %
    14:00Ясно и безоблачно+23°C62 %717 мм3.7 м/с19 %
    17:00Практически безоблачно+25°C58 %716 мм2.6 м/с11 %
    20:00Практически безоблачно+22°C74 %716 мм1.8 м/с4 %
    23:00Ясно и безоблачно+19°C85 %716 мм1.2 м/с2 %
  • 17июля
    Среда
    +16°
    +28°
    Ясно и безоблачно
    ВремяПогодаТемператураВлажностьДавлениеВетер, м/сВероятность осадков
    02:00Ясно и безоблачно+16°C86 %715 мм0.9 м/с2 %
    05:00Ясно и безоблачно+15°C89 %715 мм0.7 м/с2 %
    08:00Ясно и безоблачно+20°C75 %716 мм0.9 м/с2 %
    11:00Ясно и безоблачно+25°C53 %716 мм2.7 м/с3 %
    14:00Ясно и безоблачно+27°C43 %715 мм3.5 м/с8 %
    17:00Ясно и безоблачно+27°C44 %714 мм3.2 м/с4 %
    20:00Ясно и безоблачно+25°C60 %714 мм1.6 м/с2 %
    23:00Ясно и безоблачно+20°C77 %714 мм0.7 м/с2 %
  • 18июля
    Четверг
    +16°
    +30°
    Ясно и безоблачно
    ВремяПогодаТемператураВлажностьДавлениеВетер, м/сВероятность осадков
    02:00Ясно и безоблачно+18°C75 %713 мм1.0 м/с2 %
    05:00Ясно и безоблачно+16°C80 %713 мм1.1 м/с2 %
    08:00Ясно и безоблачно+21°C69 %714 мм0.5 м/с2 %
    11:00Ясно и безоблачно+26°C53 %713 мм2.0 м/с2 %
    14:00Ясно и безоблачно+28°C40 %712 мм3.4 м/с2 %
    17:00Ясно и безоблачно+29°C35 %711 мм3.2 м/с2 %
    20:00Ясно и безоблачно+24°C62 %711 мм1.9 м/с2 %
    23:00Ясно и безоблачно+19°C73 %710 мм1.2 м/с2 %
  • 19июля
    Пятница
    +14°
    +28°
    Небольшая облачность
    ВремяПогодаТемператураВлажностьДавлениеВетер, м/сВероятность осадков
    02:00Ясно и безоблачно+17°C72 %710 мм0.5 м/с2 %
    05:00Облачно с прояснениями+16°C75 %709 мм0.8 м/с8 %
    08:00Небольшая облачность+20°C68 %710 мм1.6 м/с11 %
    11:00Практически безоблачно+27°C49 %710 мм1.7 м/с10 %
    14:00Небольшая облачность+25°C57 %710 мм1.8 м/с13 %
    17:00Практически безоблачно+25°C50 %710 мм3.0 м/с11 %
    20:00Ясно и безоблачно+21°C68 %710 мм1.7 м/с4 %
    23:00Ясно и безоблачно+19°C83 %711 мм0.9 м/с2 %
  • 20июля
    Суббота
    +16°
    +28°
    Облачно с прояснениями
    ВремяПогодаТемператураВлажностьДавлениеВетер, м/сВероятность осадков
    02:00Облачно с прояснениями+16°C85 %710 мм1.6 м/с2 %
    05:00Облачно с прояснениями+15°C89 %710 мм1.4 м/с7 %
    08:00Облачно с прояснениями+22°C74 %711 мм0.7 м/с8 %
    11:00Облачно с прояснениями+25°C58 %711 мм2.7 м/с15 %
    14:00Облачно с прояснениями+27°C50 %711 мм2.5 м/с17 %
    17:00Облачно с прояснениями+27°C53 %710 мм2.6 м/с26 %
    20:00Облачно с прояснениями+23°C69 %711 мм1.3 м/с19 %
    23:00Небольшая облачность+20°C84 %711 мм1.7 м/с23 %
Мы используем cookies
Соглашаюсь